Oakland, Rhode Island
Current Conditions -  °F | °C
As of 12:35 PM on Tuesday 21 Oct 2014 (Local Time) from KSFZ Reporting Station
Overcast Overcast  
Wind Chill: 63°   Ceiling: 7000
Heat Index: 63°   Visibility: 10mi
Dew Point: 50°   Wind: 3mph
Humidity: 63%   Direction: 150°SSE
Pressure: 29.92"   Gusts: NA
Location:  41.96°N, 71.65°W
Report Text: KSFZ 211635Z 15003KT 10SM FEW013 SCT065 OVC070 17/10 A2992 RMK AO1
Loading
Personal Weather Stations






























Interactive Weather Map
Tropical Storm Tracking
New forecast layout! Learn more

10-Day Weather Forecast

Advertisements
Track Severe Weather on mobile